createdAt,value
2023-04-27T00:00:28.669Z,0.80
2023-04-27T00:03:16.555Z,1.10
2023-04-27T00:05:45.691Z,1.10
2023-04-27T00:08:14.195Z,1.70
2023-04-27T00:10:42.657Z,1.00
2023-04-27T00:13:11.153Z,1.40
2023-04-27T00:15:39.513Z,1.40
2023-04-27T00:18:09.248Z,1.50
2023-04-27T00:20:37.911Z,1.60
2023-04-27T00:23:06.596Z,1.30
2023-04-27T00:25:36.424Z,1.00
2023-04-27T00:28:05.202Z,1.70
2023-04-27T00:30:33.773Z,1.10
2023-04-27T00:33:02.413Z,1.50
2023-04-27T00:35:32.681Z,1.50
2023-04-27T00:38:01.365Z,2.00
2023-04-27T00:40:30.731Z,1.40
2023-04-27T00:43:00.271Z,1.80
2023-04-27T00:45:29.881Z,1.90
2023-04-27T00:47:59.214Z,1.20
2023-04-27T00:55:24.770Z,2.40
2023-04-27T00:57:53.451Z,1.10
2023-04-27T01:00:22.649Z,1.80
2023-04-27T01:02:51.555Z,2.00
2023-04-27T01:05:20.427Z,1.70
2023-04-27T01:07:49.326Z,2.10
2023-04-27T01:10:17.600Z,1.50
2023-04-27T01:12:46.477Z,1.80
2023-04-27T01:15:14.850Z,1.40
2023-04-27T01:17:44.106Z,1.90
2023-04-27T01:20:12.840Z,2.50
2023-04-27T01:22:42.046Z,1.90
2023-04-27T01:25:11.955Z,1.80
2023-04-27T01:27:40.644Z,2.00
2023-04-27T01:30:09.432Z,2.30
2023-04-27T01:32:39.477Z,1.80
2023-04-27T01:35:08.749Z,1.80
2023-04-27T01:37:37.213Z,2.40
2023-04-27T01:40:07.233Z,2.30
2023-04-27T01:42:35.632Z,2.10
2023-04-27T01:45:05.526Z,2.20
2023-04-27T01:47:33.963Z,2.20
2023-04-27T01:50:02.996Z,2.00
2023-04-27T01:52:31.683Z,1.90
2023-04-27T01:55:00.172Z,2.20
2023-04-27T01:57:29.357Z,2.10
2023-04-27T01:59:58.044Z,2.30
2023-04-27T02:02:26.859Z,2.40
2023-04-27T02:04:56.743Z,2.00
2023-04-27T02:21:18.983Z,2.60
2023-04-27T02:23:46.038Z,2.40
2023-04-27T02:26:17.955Z,2.50
2023-04-27T02:28:46.357Z,2.50
2023-04-27T02:31:15.323Z,3.10
2023-04-27T02:33:42.658Z,2.90
2023-04-27T02:36:09.747Z,2.70
2023-04-27T02:38:36.807Z,2.50
2023-04-27T02:41:04.462Z,2.10
2023-04-27T02:43:34.583Z,2.10
2023-04-27T02:46:04.288Z,2.00
2023-04-27T02:48:31.443Z,2.50
2023-04-27T02:50:58.777Z,2.50
2023-04-27T02:53:26.036Z,2.90
2023-04-27T02:55:53.037Z,2.50
2023-04-27T02:58:20.085Z,2.60
2023-04-27T03:00:48.788Z,2.60
2023-04-27T03:03:16.283Z,2.60
2023-04-27T03:27:00.797Z,3.10
2023-04-27T03:29:29.282Z,2.40
2023-04-27T03:31:58.034Z,2.70
2023-04-27T03:34:26.544Z,2.80
2023-04-27T03:36:55.242Z,2.90
2023-04-27T03:39:23.506Z,2.60
2023-04-27T03:41:51.882Z,2.70
2023-04-27T03:44:21.174Z,2.60
2023-04-27T03:46:49.561Z,2.70
2023-04-27T03:49:18.148Z,2.60
2023-04-27T03:51:47.641Z,3.10
2023-04-27T03:54:16.535Z,2.90
2023-04-27T03:56:44.824Z,3.10
2023-04-27T03:59:13.733Z,2.60
2023-04-27T04:01:49.178Z,2.20
2023-04-27T04:04:17.920Z,1.90
2023-04-27T04:20:15.573Z,2.20
2023-04-27T04:22:44.871Z,1.80
2023-04-27T04:25:13.460Z,2.40
2023-04-27T04:27:43.267Z,2.30
2023-04-27T04:30:13.007Z,2.20
2023-04-27T04:32:42.098Z,2.30
2023-04-27T04:35:11.497Z,2.40
2023-04-27T04:37:40.588Z,2.10
2023-04-27T04:40:11.713Z,2.20
2023-04-27T04:42:43.031Z,1.70
2023-04-27T04:45:12.069Z,2.20
2023-04-27T04:47:41.087Z,2.10
2023-04-27T04:50:10.436Z,1.80
2023-04-27T04:52:40.045Z,1.60
2023-04-27T04:55:09.783Z,2.20
2023-04-27T04:57:38.132Z,2.20
2023-04-27T05:00:12.709Z,2.90
2023-04-27T05:02:41.753Z,2.00
2023-04-27T05:05:11.258Z,1.90
2023-04-27T05:07:39.535Z,1.70
2023-04-27T05:10:08.731Z,1.90
2023-04-27T05:12:37.206Z,1.90
2023-04-27T05:15:06.901Z,2.10
2023-04-27T05:17:35.314Z,2.30
2023-04-27T05:20:05.315Z,2.40
2023-04-27T05:22:33.770Z,2.30
2023-04-27T05:25:02.372Z,2.40
2023-04-27T05:27:30.966Z,2.40
2023-04-27T05:29:59.224Z,2.10
2023-04-27T05:32:27.817Z,2.30
2023-04-27T05:34:56.495Z,2.60
2023-04-27T05:37:25.178Z,2.70
2023-04-27T05:39:53.669Z,2.40
2023-04-27T05:42:22.036Z,2.40
2023-04-27T05:44:50.530Z,2.60
2023-04-27T05:47:19.000Z,2.90
2023-04-27T05:49:51.882Z,2.40
2023-04-27T05:52:21.188Z,2.30
2023-04-27T05:54:50.387Z,2.30
2023-04-27T05:57:20.496Z,2.30
2023-04-27T05:59:48.884Z,2.50
2023-04-27T06:02:20.030Z,2.10
2023-04-27T06:04:49.457Z,2.10
2023-04-27T06:07:17.802Z,1.80
2023-04-27T06:09:46.383Z,1.90
2023-04-27T06:12:15.064Z,2.70
2023-04-27T06:14:43.821Z,2.40
2023-04-27T06:17:12.433Z,2.10
2023-04-27T06:19:40.818Z,2.20
2023-04-27T06:22:11.879Z,1.80
2023-04-27T06:24:40.332Z,2.40
2023-04-27T06:27:08.817Z,2.40
2023-04-27T06:29:37.617Z,1.90
2023-04-27T06:32:07.258Z,2.10
2023-04-27T06:34:36.294Z,1.80
2023-04-27T06:37:04.985Z,2.10
2023-04-27T06:39:33.357Z,1.90
2023-04-27T06:42:04.193Z,2.10
2023-04-27T06:44:33.291Z,2.20
2023-04-27T06:47:01.772Z,2.20
2023-04-27T06:49:30.555Z,2.00
2023-04-27T06:51:58.832Z,1.80
2023-04-27T06:54:27.210Z,1.30
2023-04-27T06:56:55.688Z,1.80
2023-04-27T06:59:24.065Z,2.10
2023-04-27T07:01:52.454Z,1.80
2023-04-27T07:04:21.555Z,1.60
2023-04-27T07:06:50.223Z,2.60
2023-04-27T07:09:26.901Z,2.20
2023-04-27T07:11:57.628Z,2.20
2023-04-27T07:14:26.336Z,1.60
2023-04-27T07:16:56.023Z,2.20
2023-04-27T07:19:24.296Z,2.60
2023-04-27T07:21:52.984Z,2.30
2023-04-27T07:24:21.470Z,2.60
2023-04-27T07:26:50.156Z,2.10
2023-04-27T07:29:26.377Z,2.60
2023-04-27T07:31:56.254Z,2.30
2023-04-27T07:34:24.802Z,1.90
2023-04-27T07:36:55.857Z,1.40
2023-04-27T07:39:24.426Z,1.50
2023-04-27T07:41:53.932Z,1.70
2023-04-27T07:44:22.195Z,1.60
2023-04-27T07:46:54.267Z,2.60
2023-04-27T07:49:22.853Z,1.70
2023-04-27T07:51:51.329Z,2.40
2023-04-27T07:54:20.226Z,2.10
2023-04-27T07:56:50.029Z,2.10
2023-04-27T07:59:21.789Z,1.90
2023-04-27T08:01:50.608Z,2.40
2023-04-27T08:04:21.749Z,1.80
2023-04-27T08:07:17.480Z,2.00
2023-04-27T08:09:46.783Z,1.90
2023-04-27T08:12:16.199Z,2.30
2023-04-27T08:14:48.817Z,2.30
2023-04-27T08:17:18.837Z,1.90
2023-04-27T08:19:47.417Z,2.30
2023-04-27T08:22:16.105Z,2.00
2023-04-27T08:24:44.784Z,2.00
2023-04-27T08:27:16.028Z,1.80
2023-04-27T08:29:48.806Z,2.10
2023-04-27T08:32:19.228Z,1.80
2023-04-27T08:34:48.944Z,1.80
2023-04-27T08:37:18.964Z,2.00
2023-04-27T08:39:48.258Z,2.50
2023-04-27T08:42:16.842Z,2.00
2023-04-27T08:44:45.934Z,2.30
2023-04-27T08:47:14.313Z,2.00
2023-04-27T08:49:43.307Z,2.30
2023-04-27T08:52:16.578Z,1.70
2023-04-27T08:54:45.285Z,1.80
2023-04-27T08:57:14.890Z,1.80
2023-04-27T08:59:46.336Z,1.40
2023-04-27T09:02:21.698Z,1.80
2023-04-27T09:04:52.453Z,1.60
2023-04-27T09:07:21.103Z,1.40
2023-04-27T09:09:50.092Z,1.80
2023-04-27T09:12:21.042Z,1.90
2023-04-27T09:15:06.767Z,1.90
2023-04-27T09:17:35.010Z,1.40
2023-04-27T09:20:14.114Z,1.60
2023-04-27T09:22:47.734Z,1.40
2023-04-27T09:25:32.004Z,1.40
2023-04-27T09:28:04.748Z,1.50
2023-04-27T09:30:33.337Z,1.30
2023-04-27T09:33:03.947Z,1.30
2023-04-27T09:35:33.781Z,1.70
2023-04-27T09:38:02.369Z,1.90
2023-04-27T09:40:32.241Z,1.80
2023-04-27T09:43:03.816Z,1.50
2023-04-27T09:45:34.509Z,1.80
2023-04-27T09:48:03.359Z,1.50
2023-04-27T09:50:44.597Z,2.00
2023-04-27T09:53:15.566Z,1.90
2023-04-27T09:55:48.964Z,1.40
2023-04-27T09:58:31.147Z,1.50
2023-04-27T10:01:14.508Z,1.70
2023-04-27T10:04:22.010Z,1.30
2023-04-27T10:06:59.777Z,1.70
2023-04-27T10:09:35.414Z,2.00
2023-04-27T10:12:20.281Z,1.70
2023-04-27T10:17:18.142Z,1.50
2023-04-27T10:19:58.220Z,2.70
2023-04-27T10:22:46.252Z,1.90
2023-04-27T10:25:26.010Z,1.70
2023-04-27T10:28:02.467Z,1.40
2023-04-27T10:30:37.865Z,2.30
2023-04-27T10:33:09.817Z,1.80
2023-04-27T10:35:40.405Z,1.40
2023-04-27T10:38:12.261Z,2.10
2023-04-27T10:40:41.453Z,2.00
2023-04-27T10:43:15.061Z,2.00
2023-04-27T10:45:45.689Z,1.90
2023-04-27T10:48:16.940Z,1.60
2023-04-27T10:50:48.354Z,2.10
2023-04-27T10:53:16.966Z,1.10
2023-04-27T10:55:45.334Z,2.20
2023-04-27T10:58:13.823Z,1.80
2023-04-27T11:00:45.098Z,1.60
2023-04-27T11:03:24.446Z,1.70
2023-04-27T11:06:05.352Z,1.80
2023-04-27T11:08:37.029Z,1.80
2023-04-27T11:11:06.528Z,2.00
2023-04-27T11:13:35.214Z,1.80
2023-04-27T11:16:05.972Z,1.80
2023-04-27T11:18:38.730Z,1.80
2023-04-27T11:21:08.094Z,1.70
2023-04-27T11:24:06.717Z,1.70
2023-04-27T11:26:35.405Z,1.50
2023-04-27T11:29:10.947Z,2.30
2023-04-27T11:31:47.752Z,1.70
2023-04-27T11:34:19.519Z,1.70
2023-04-27T11:39:37.942Z,1.60
2023-04-27T11:42:19.734Z,2.00
2023-04-27T11:45:10.855Z,1.80
2023-04-27T11:47:41.193Z,2.20
2023-04-27T11:50:11.192Z,1.90
2023-04-27T11:52:41.077Z,1.40
2023-04-27T11:55:16.257Z,1.70
2023-04-27T11:57:44.932Z,2.10
2023-04-27T12:00:15.953Z,2.10
2023-04-27T12:02:44.644Z,1.40
2023-04-27T12:05:14.508Z,1.60
2023-04-27T12:07:44.269Z,1.60
2023-04-27T12:10:13.115Z,2.00
2023-04-27T12:12:42.208Z,1.60
2023-04-27T12:15:14.716Z,1.70
2023-04-27T12:17:44.558Z,1.90
2023-04-27T12:20:15.366Z,1.60
2023-04-27T12:22:44.339Z,1.80
2023-04-27T12:25:13.044Z,1.80
2023-04-27T12:27:42.031Z,1.60
2023-04-27T12:30:11.129Z,1.90
2023-04-27T12:32:40.476Z,1.40
2023-04-27T12:35:10.960Z,1.70
2023-04-27T12:37:39.539Z,2.10
2023-04-27T12:40:09.354Z,1.80
2023-04-27T12:42:38.112Z,1.90
2023-04-27T12:45:08.310Z,1.70
2023-04-27T12:50:10.187Z,1.70
2023-04-27T12:52:38.924Z,2.10
2023-04-27T12:55:17.930Z,1.50
2023-04-27T12:57:51.319Z,1.80
2023-04-27T13:00:21.108Z,1.60
2023-04-27T13:02:49.716Z,1.90
2023-04-27T13:05:22.988Z,1.80
2023-04-27T13:07:51.275Z,1.50
2023-04-27T13:10:22.300Z,1.90
2023-04-27T13:12:50.809Z,1.50
2023-04-27T13:15:19.383Z,2.30
2023-04-27T13:17:49.131Z,1.70
2023-04-27T13:20:17.982Z,1.80
2023-04-27T13:22:46.252Z,2.30
2023-04-27T13:25:18.539Z,2.70
2023-04-27T13:30:20.399Z,1.70
2023-04-27T13:32:49.422Z,1.80
2023-04-27T13:35:18.896Z,1.90
2023-04-27T13:37:48.494Z,1.80
2023-04-27T13:40:18.513Z,2.10
2023-04-27T13:42:47.400Z,1.70
2023-04-27T13:45:15.985Z,2.20
2023-04-27T13:47:44.809Z,1.90
2023-04-27T13:50:19.264Z,1.80
2023-04-27T13:52:48.796Z,2.20
2023-04-27T13:55:17.364Z,2.30
2023-04-27T13:57:45.663Z,2.40
2023-04-27T14:00:14.853Z,1.50
2023-04-27T14:02:43.863Z,1.90
2023-04-27T14:05:13.036Z,1.70
2023-04-27T14:07:41.524Z,2.00
2023-04-27T14:10:11.766Z,1.40
2023-04-27T14:12:40.329Z,1.60
2023-04-27T14:15:10.238Z,2.20
2023-04-27T14:17:38.675Z,2.10
2023-04-27T14:20:09.767Z,2.30
2023-04-27T14:22:38.601Z,3.30
2023-04-27T14:25:08.261Z,1.50
2023-04-27T14:27:37.370Z,1.70
2023-04-27T14:30:07.180Z,1.60
2023-04-27T14:32:36.796Z,1.80
2023-04-27T14:35:07.391Z,2.30
2023-04-27T14:37:38.231Z,1.60
2023-04-27T14:40:07.987Z,1.80
2023-04-27T14:42:36.632Z,1.80
2023-04-27T14:45:07.462Z,2.20
2023-04-27T14:47:36.153Z,1.90
2023-04-27T14:50:05.448Z,2.20
2023-04-27T14:52:34.547Z,1.20
2023-04-27T14:55:03.147Z,2.00
2023-04-27T14:57:32.432Z,1.80
2023-04-27T15:00:01.412Z,2.20
2023-04-27T15:02:31.203Z,1.40
2023-04-27T15:05:02.155Z,1.50
2023-04-27T15:07:56.348Z,1.50
2023-04-27T15:10:26.153Z,1.80
2023-04-27T15:12:54.939Z,1.90
2023-04-27T15:15:23.531Z,1.60
2023-04-27T15:17:52.254Z,1.60
2023-04-27T15:20:21.205Z,1.50
2023-04-27T15:22:49.587Z,1.40
2023-04-27T15:25:18.269Z,1.70
2023-04-27T15:27:46.959Z,2.00
2023-04-27T15:30:17.066Z,1.60
2023-04-27T15:32:45.778Z,1.90
2023-04-27T15:35:14.240Z,1.40
2023-04-27T15:37:42.613Z,1.80
2023-04-27T15:40:11.803Z,2.10
2023-04-27T15:42:40.486Z,2.10
2023-04-27T15:45:11.153Z,2.10
2023-04-27T15:47:39.658Z,2.90
2023-04-27T15:50:08.625Z,2.10
2023-04-27T15:52:37.073Z,2.10
2023-04-27T15:55:06.681Z,2.40
2023-04-27T15:57:36.281Z,2.10
2023-04-27T16:00:12.242Z,1.90
2023-04-27T16:02:40.817Z,2.00
2023-04-27T16:05:10.019Z,2.00
2023-04-27T16:07:40.068Z,1.50
2023-04-27T16:10:10.003Z,1.80
2023-04-27T16:12:38.852Z,2.40
2023-04-27T16:15:10.955Z,2.40
2023-04-27T16:17:40.034Z,2.70
2023-04-27T16:20:09.811Z,1.80
2023-04-27T16:22:38.498Z,2.30
2023-04-27T16:25:11.158Z,2.50
2023-04-27T16:30:09.107Z,2.00
2023-04-27T16:32:38.186Z,2.60
2023-04-27T16:35:08.375Z,2.90
2023-04-27T16:37:36.751Z,2.50
2023-04-27T16:40:08.198Z,3.30
2023-04-27T16:42:36.789Z,2.90
2023-04-27T16:45:09.152Z,2.50
2023-04-27T16:47:39.483Z,3.00
2023-04-27T16:50:09.286Z,3.30
2023-04-27T16:52:37.559Z,3.70
2023-04-27T16:55:07.672Z,3.60
2023-04-27T16:57:36.160Z,3.00
2023-04-27T17:00:06.663Z,4.10
2023-04-27T17:02:35.501Z,3.20
2023-04-27T17:05:04.829Z,3.80
2023-04-27T17:07:33.556Z,3.60
2023-04-27T17:10:02.340Z,3.30
2023-04-27T17:12:30.818Z,2.60
2023-04-27T17:14:59.451Z,2.00
2023-04-27T17:17:27.799Z,3.00
2023-04-27T17:19:56.463Z,2.40
2023-04-27T17:22:25.048Z,2.40
2023-04-27T17:24:53.731Z,2.70
2023-04-27T17:27:22.003Z,2.50
2023-04-27T17:29:52.020Z,2.80
2023-04-27T17:32:20.295Z,3.20
2023-04-27T17:34:49.089Z,2.20
2023-04-27T17:37:17.361Z,2.90
2023-04-27T17:39:46.452Z,2.50
2023-04-27T17:42:15.448Z,2.20
2023-04-27T17:44:44.040Z,2.70
2023-04-27T17:47:13.946Z,2.60
2023-04-27T17:49:42.333Z,3.30
2023-04-27T17:52:10.702Z,2.50
2023-04-27T17:54:41.435Z,2.30
2023-04-27T17:57:09.915Z,3.00
2023-04-27T17:59:38.595Z,4.70
2023-04-27T18:02:07.939Z,4.20
2023-04-27T18:04:37.126Z,3.80
2023-04-27T18:07:06.611Z,3.40
2023-04-27T18:09:35.080Z,3.80
2023-04-27T18:12:04.891Z,3.10
2023-04-27T18:14:33.164Z,3.40
2023-04-27T18:17:01.747Z,3.50
2023-04-27T18:19:30.331Z,3.20
2023-04-27T18:21:58.818Z,3.10
2023-04-27T18:24:27.189Z,3.40
2023-04-27T18:26:55.601Z,3.90
2023-04-27T18:29:24.347Z,3.10
2023-04-27T18:31:53.627Z,2.70
2023-04-27T18:34:22.342Z,4.40
2023-04-27T18:36:52.188Z,3.60
2023-04-27T18:39:20.943Z,4.00
2023-04-27T18:41:49.525Z,3.60
2023-04-27T18:44:17.885Z,3.10
2023-04-27T18:46:49.339Z,2.40
2023-04-27T18:49:17.902Z,3.00
2023-04-27T18:51:46.510Z,3.30
2023-04-27T18:54:15.083Z,2.80
2023-04-27T18:56:43.358Z,3.00
2023-04-27T18:59:11.964Z,2.50
2023-04-27T19:01:40.903Z,2.80
2023-04-27T19:04:09.443Z,2.80
2023-04-27T19:06:37.998Z,2.50
2023-04-27T19:09:06.579Z,3.30
2023-04-27T19:11:36.397Z,3.10
2023-04-27T19:14:04.672Z,2.10
2023-04-27T19:16:33.191Z,3.10
2023-04-27T19:19:01.541Z,3.10
2023-04-27T19:21:30.224Z,2.70
2023-04-27T19:23:58.903Z,2.90
2023-04-27T19:26:29.633Z,2.90
2023-04-27T19:28:58.311Z,3.60
2023-04-27T19:31:28.207Z,2.50
2023-04-27T19:36:32.342Z,2.80
2023-04-27T19:39:01.342Z,2.20
2023-04-27T19:41:29.620Z,2.70
2023-04-27T19:43:58.200Z,3.10
2023-04-27T19:46:26.947Z,2.70
2023-04-27T19:48:56.185Z,2.60
2023-04-27T19:51:24.972Z,2.70
2023-04-27T19:53:53.347Z,3.00
2023-04-27T19:56:21.828Z,2.50
2023-04-27T19:58:50.621Z,2.40
2023-04-27T20:01:20.363Z,2.60
2023-04-27T20:03:49.187Z,2.80
2023-04-27T20:06:20.458Z,2.50
2023-04-27T20:08:49.345Z,2.70
2023-04-27T20:11:17.724Z,2.40
2023-04-27T20:13:46.421Z,2.30
2023-04-27T20:16:14.878Z,1.90
2023-04-27T20:18:45.417Z,2.50
2023-04-27T20:21:14.315Z,2.20
2023-04-27T20:23:43.193Z,2.60
2023-04-27T20:26:11.981Z,2.40
2023-04-27T20:28:40.152Z,2.60
2023-04-27T20:31:08.740Z,2.20
2023-04-27T20:33:37.119Z,2.80
2023-04-27T20:36:14.087Z,2.10
2023-04-27T20:38:46.579Z,2.40
2023-04-27T20:41:15.149Z,2.40
2023-04-27T20:43:45.788Z,1.80
2023-04-27T20:46:14.175Z,2.20
2023-04-27T20:48:42.641Z,2.10
2023-04-27T20:51:11.530Z,1.60
2023-04-27T20:53:40.730Z,2.70
2023-04-27T20:56:09.516Z,2.90
2023-04-27T20:58:37.989Z,2.00
2023-04-27T21:01:06.642Z,2.90
2023-04-27T21:03:36.144Z,2.50
2023-04-27T21:06:05.279Z,2.70
2023-04-27T21:08:34.282Z,2.20
2023-04-27T21:11:03.070Z,2.10
2023-04-27T21:13:31.842Z,2.30
2023-04-27T21:16:00.324Z,3.50
2023-04-27T21:18:30.396Z,2.90
2023-04-27T21:20:59.607Z,3.30
2023-04-27T21:23:28.166Z,3.00
2023-04-27T21:25:56.612Z,2.60
2023-04-27T21:28:25.078Z,2.90
2023-04-27T21:30:53.509Z,2.50
2023-04-27T21:33:22.669Z,2.40
2023-04-27T21:35:51.030Z,2.50
2023-04-27T21:38:19.407Z,2.90
2023-04-27T21:40:48.473Z,3.00
2023-04-27T21:43:17.085Z,2.30
2023-04-27T21:45:45.358Z,2.40
2023-04-27T21:48:13.866Z,2.60
2023-04-27T21:50:42.733Z,2.20
2023-04-27T21:53:11.827Z,2.50
2023-04-27T22:07:37.614Z,2.40
2023-04-27T22:10:06.787Z,2.70
2023-04-27T22:12:35.273Z,2.60
2023-04-27T22:15:04.359Z,2.30
2023-04-27T22:17:32.634Z,2.20
2023-04-27T22:20:01.624Z,2.20
2023-04-27T22:27:06.090Z,2.40
2023-04-27T22:29:34.675Z,2.10
2023-04-27T22:32:28.149Z,1.90
2023-04-27T22:34:57.652Z,2.50
2023-04-27T22:37:27.184Z,2.30
2023-04-27T22:39:57.566Z,2.40
2023-04-27T22:42:26.159Z,2.30
2023-04-27T22:44:54.726Z,2.30
2023-04-27T22:47:23.382Z,2.10
2023-04-27T22:49:55.152Z,2.20
2023-04-27T22:52:25.090Z,2.80
2023-04-27T22:54:53.573Z,2.50
2023-04-27T22:57:22.146Z,2.40
2023-04-27T22:59:51.753Z,2.60
2023-04-27T23:02:20.577Z,2.10
2023-04-27T23:04:49.231Z,2.60
2023-04-27T23:41:01.355Z,2.70
2023-04-27T23:43:29.622Z,2.30
